sensor_id;sensor_type;location;lat;lon;timestamp;P1;durP1;ratioP1;P2;durP2;ratioP2
23346;SDS011;36852;45.466;11.066;2023-04-06T00:01:00;12.78;;;6.37;;
23346;SDS011;36852;45.466;11.066;2023-04-06T00:03:28;9.78;;;6.00;;
23346;SDS011;36852;45.466;11.066;2023-04-06T00:05:57;11.45;;;6.17;;
23346;SDS011;36852;45.466;11.066;2023-04-06T00:08:25;9.23;;;5.78;;
23346;SDS011;36852;45.466;11.066;2023-04-06T00:10:54;9.80;;;6.08;;
23346;SDS011;36852;45.466;11.066;2023-04-06T00:13:23;7.83;;;6.37;;
23346;SDS011;36852;45.466;11.066;2023-04-06T00:15:51;9.90;;;6.12;;
23346;SDS011;36852;45.466;11.066;2023-04-06T00:18:19;8.58;;;5.78;;
23346;SDS011;36852;45.466;11.066;2023-04-06T00:20:47;10.48;;;6.40;;
23346;SDS011;36852;45.466;11.066;2023-04-06T00:23:16;9.03;;;6.00;;
23346;SDS011;36852;45.466;11.066;2023-04-06T00:28:33;8.25;;;6.00;;
23346;SDS011;36852;45.466;11.066;2023-04-06T00:31:01;7.08;;;5.47;;
23346;SDS011;36852;45.466;11.066;2023-04-06T00:33:28;8.10;;;5.85;;
23346;SDS011;36852;45.466;11.066;2023-04-06T00:35:56;8.33;;;5.90;;
23346;SDS011;36852;45.466;11.066;2023-04-06T00:38:25;9.65;;;5.70;;
23346;SDS011;36852;45.466;11.066;2023-04-06T00:40:53;8.05;;;5.40;;
23346;SDS011;36852;45.466;11.066;2023-04-06T00:43:20;7.80;;;5.35;;
23346;SDS011;36852;45.466;11.066;2023-04-06T00:45:51;8.65;;;5.30;;
23346;SDS011;36852;45.466;11.066;2023-04-06T00:48:21;6.30;;;4.80;;
23346;SDS011;36852;45.466;11.066;2023-04-06T00:50:48;7.58;;;5.12;;
23346;SDS011;36852;45.466;11.066;2023-04-06T00:53:17;7.60;;;5.40;;
23346;SDS011;36852;45.466;11.066;2023-04-06T00:55:44;8.58;;;5.20;;
23346;SDS011;36852;45.466;11.066;2023-04-06T00:58:12;7.15;;;5.28;;
23346;SDS011;36852;45.466;11.066;2023-04-06T01:00:42;6.97;;;5.30;;
23346;SDS011;36852;45.466;11.066;2023-04-06T01:03:11;7.37;;;5.67;;
23346;SDS011;36852;45.466;11.066;2023-04-06T01:05:41;9.10;;;6.00;;
23346;SDS011;36852;45.466;11.066;2023-04-06T01:08:11;10.10;;;5.85;;
23346;SDS011;36852;45.466;11.066;2023-04-06T01:10:42;8.08;;;5.35;;
23346;SDS011;36852;45.466;11.066;2023-04-06T01:13:15;6.78;;;5.37;;
23346;SDS011;36852;45.466;11.066;2023-04-06T01:15:47;7.15;;;5.22;;
23346;SDS011;36852;45.466;11.066;2023-04-06T01:18:17;12.18;;;5.70;;
23346;SDS011;36852;45.466;11.066;2023-04-06T01:20:47;6.83;;;5.50;;
23346;SDS011;36852;45.466;11.066;2023-04-06T01:23:16;10.58;;;5.85;;
23346;SDS011;36852;45.466;11.066;2023-04-06T01:25:45;9.00;;;5.37;;
23346;SDS011;36852;45.466;11.066;2023-04-06T01:28:13;8.53;;;5.80;;
23346;SDS011;36852;45.466;11.066;2023-04-06T01:30:59;9.10;;;5.67;;
23346;SDS011;36852;45.466;11.066;2023-04-06T01:33:41;7.53;;;4.87;;
23346;SDS011;36852;45.466;11.066;2023-04-06T01:36:11;10.30;;;5.62;;
23346;SDS011;36852;45.466;11.066;2023-04-06T01:38:40;9.10;;;5.67;;
23346;SDS011;36852;45.466;11.066;2023-04-06T01:41:09;9.95;;;5.03;;
23346;SDS011;36852;45.466;11.066;2023-04-06T01:46:28;8.20;;;5.90;;
23346;SDS011;36852;45.466;11.066;2023-04-06T01:48:57;9.20;;;5.50;;
23346;SDS011;36852;45.466;11.066;2023-04-06T01:51:29;7.75;;;5.22;;
23346;SDS011;36852;45.466;11.066;2023-04-06T01:53:59;7.95;;;5.28;;
23346;SDS011;36852;45.466;11.066;2023-04-06T01:56:41;8.58;;;5.03;;
23346;SDS011;36852;45.466;11.066;2023-04-06T01:59:16;10.23;;;5.50;;
23346;SDS011;36852;45.466;11.066;2023-04-06T02:01:45;13.00;;;5.35;;
23346;SDS011;36852;45.466;11.066;2023-04-06T02:04:12;7.50;;;5.17;;
23346;SDS011;36852;45.466;11.066;2023-04-06T02:06:41;8.10;;;5.37;;
23346;SDS011;36852;45.466;11.066;2023-04-06T02:09:11;7.72;;;5.53;;
23346;SDS011;36852;45.466;11.066;2023-04-06T02:11:38;7.45;;;5.15;;
23346;SDS011;36852;45.466;11.066;2023-04-06T02:14:06;6.90;;;5.08;;
23346;SDS011;36852;45.466;11.066;2023-04-06T02:16:36;6.85;;;5.03;;
23346;SDS011;36852;45.466;11.066;2023-04-06T02:19:03;10.95;;;5.83;;
23346;SDS011;36852;45.466;11.066;2023-04-06T02:21:33;8.08;;;5.00;;
23346;SDS011;36852;45.466;11.066;2023-04-06T02:24:01;6.60;;;4.90;;
23346;SDS011;36852;45.466;11.066;2023-04-06T02:26:29;9.38;;;5.28;;
23346;SDS011;36852;45.466;11.066;2023-04-06T02:28:56;6.00;;;5.17;;
23346;SDS011;36852;45.466;11.066;2023-04-06T02:31:25;9.93;;;5.58;;
23346;SDS011;36852;45.466;11.066;2023-04-06T02:33:53;9.60;;;6.08;;
23346;SDS011;36852;45.466;11.066;2023-04-06T02:36:22;10.88;;;5.45;;
23346;SDS011;36852;45.466;11.066;2023-04-06T02:38:50;9.18;;;5.78;;
23346;SDS011;36852;45.466;11.066;2023-04-06T02:41:19;11.50;;;5.50;;
23346;SDS011;36852;45.466;11.066;2023-04-06T02:43:47;8.10;;;5.37;;
23346;SDS011;36852;45.466;11.066;2023-04-06T02:46:16;13.62;;;6.03;;
23346;SDS011;36852;45.466;11.066;2023-04-06T02:48:45;9.18;;;6.05;;
23346;SDS011;36852;45.466;11.066;2023-04-06T02:51:14;9.90;;;5.37;;
23346;SDS011;36852;45.466;11.066;2023-04-06T02:53:44;7.65;;;5.45;;
23346;SDS011;36852;45.466;11.066;2023-04-06T02:56:12;9.28;;;5.95;;
23346;SDS011;36852;45.466;11.066;2023-04-06T02:58:42;6.75;;;5.12;;
23346;SDS011;36852;45.466;11.066;2023-04-06T03:03:45;8.40;;;5.70;;
23346;SDS011;36852;45.466;11.066;2023-04-06T03:06:15;7.37;;;5.50;;
23346;SDS011;36852;45.466;11.066;2023-04-06T03:08:43;7.83;;;5.60;;
23346;SDS011;36852;45.466;11.066;2023-04-06T03:11:11;10.90;;;5.78;;
23346;SDS011;36852;45.466;11.066;2023-04-06T03:13:40;10.18;;;5.60;;
23346;SDS011;36852;45.466;11.066;2023-04-06T03:16:10;10.40;;;6.10;;
23346;SDS011;36852;45.466;11.066;2023-04-06T03:18:39;12.65;;;6.25;;
23346;SDS011;36852;45.466;11.066;2023-04-06T03:21:07;11.68;;;5.90;;
23346;SDS011;36852;45.466;11.066;2023-04-06T03:23:41;9.93;;;6.40;;
23346;SDS011;36852;45.466;11.066;2023-04-06T03:26:09;9.40;;;6.50;;
23346;SDS011;36852;45.466;11.066;2023-04-06T03:28:37;8.85;;;5.80;;
23346;SDS011;36852;45.466;11.066;2023-04-06T03:31:06;6.50;;;5.53;;
23346;SDS011;36852;45.466;11.066;2023-04-06T03:36:25;11.35;;;6.30;;
23346;SDS011;36852;45.466;11.066;2023-04-06T03:38:59;8.10;;;5.83;;
23346;SDS011;36852;45.466;11.066;2023-04-06T03:41:26;8.53;;;5.50;;
23346;SDS011;36852;45.466;11.066;2023-04-06T03:43:56;8.55;;;5.65;;
23346;SDS011;36852;45.466;11.066;2023-04-06T03:46:24;10.20;;;6.62;;
23346;SDS011;36852;45.466;11.066;2023-04-06T03:48:53;9.18;;;5.95;;
23346;SDS011;36852;45.466;11.066;2023-04-06T03:51:23;9.38;;;5.60;;
23346;SDS011;36852;45.466;11.066;2023-04-06T03:53:51;8.45;;;6.28;;
23346;SDS011;36852;45.466;11.066;2023-04-06T03:56:18;7.85;;;5.58;;
23346;SDS011;36852;45.466;11.066;2023-04-06T03:58:46;11.12;;;6.05;;
23346;SDS011;36852;45.466;11.066;2023-04-06T04:01:20;10.15;;;6.17;;
23346;SDS011;36852;45.466;11.066;2023-04-06T04:03:46;9.05;;;6.05;;
23346;SDS011;36852;45.466;11.066;2023-04-06T04:06:15;9.85;;;5.00;;
23346;SDS011;36852;45.466;11.066;2023-04-06T04:08:45;8.85;;;5.78;;
23346;SDS011;36852;45.466;11.066;2023-04-06T04:11:13;12.88;;;6.15;;
23346;SDS011;36852;45.466;11.066;2023-04-06T04:13:44;9.20;;;5.28;;
23346;SDS011;36852;45.466;11.066;2023-04-06T04:16:13;7.75;;;5.92;;
23346;SDS011;36852;45.466;11.066;2023-04-06T04:18:41;7.95;;;5.10;;
23346;SDS011;36852;45.466;11.066;2023-04-06T04:21:10;9.28;;;5.55;;
23346;SDS011;36852;45.466;11.066;2023-04-06T04:23:38;8.05;;;4.90;;
23346;SDS011;36852;45.466;11.066;2023-04-06T04:26:07;8.35;;;5.47;;
23346;SDS011;36852;45.466;11.066;2023-04-06T04:28:35;9.25;;;5.90;;
23346;SDS011;36852;45.466;11.066;2023-04-06T04:31:02;8.83;;;5.33;;
23346;SDS011;36852;45.466;11.066;2023-04-06T04:33:32;8.48;;;5.67;;
23346;SDS011;36852;45.466;11.066;2023-04-06T04:36:01;9.90;;;5.60;;
23346;SDS011;36852;45.466;11.066;2023-04-06T04:38:31;8.13;;;5.35;;
23346;SDS011;36852;45.466;11.066;2023-04-06T04:40:59;7.67;;;5.50;;
23346;SDS011;36852;45.466;11.066;2023-04-06T04:43:28;7.97;;;5.12;;
23346;SDS011;36852;45.466;11.066;2023-04-06T04:45:57;8.45;;;5.20;;
23346;SDS011;36852;45.466;11.066;2023-04-06T04:48:28;9.70;;;5.12;;
23346;SDS011;36852;45.466;11.066;2023-04-06T04:50:58;10.43;;;5.90;;
23346;SDS011;36852;45.466;11.066;2023-04-06T04:53:27;10.28;;;5.70;;
23346;SDS011;36852;45.466;11.066;2023-04-06T04:55:57;12.90;;;6.15;;
23346;SDS011;36852;45.466;11.066;2023-04-06T04:58:28;10.08;;;6.20;;
23346;SDS011;36852;45.466;11.066;2023-04-06T05:03:46;11.43;;;5.58;;
23346;SDS011;36852;45.466;11.066;2023-04-06T05:06:14;9.25;;;6.25;;
23346;SDS011;36852;45.466;11.066;2023-04-06T05:08:43;8.15;;;5.42;;
23346;SDS011;36852;45.466;11.066;2023-04-06T05:11:11;9.78;;;6.05;;
23346;SDS011;36852;45.466;11.066;2023-04-06T05:13:41;8.35;;;5.83;;
23346;SDS011;36852;45.466;11.066;2023-04-06T05:18:50;37.63;;;19.12;;
23346;SDS011;36852;45.466;11.066;2023-04-06T05:21:18;10.90;;;7.20;;
23346;SDS011;36852;45.466;11.066;2023-04-06T05:23:56;9.15;;;5.97;;
23346;SDS011;36852;45.466;11.066;2023-04-06T05:26:26;10.30;;;5.60;;
23346;SDS011;36852;45.466;11.066;2023-04-06T05:28:55;9.78;;;5.50;;
23346;SDS011;36852;45.466;11.066;2023-04-06T05:31:24;11.25;;;6.37;;
23346;SDS011;36852;45.466;11.066;2023-04-06T05:33:52;8.60;;;5.45;;
23346;SDS011;36852;45.466;11.066;2023-04-06T05:36:24;8.73;;;5.60;;
23346;SDS011;36852;45.466;11.066;2023-04-06T05:38:52;11.20;;;6.30;;
23346;SDS011;36852;45.466;11.066;2023-04-06T05:41:22;9.10;;;5.35;;
23346;SDS011;36852;45.466;11.066;2023-04-06T05:43:50;33.85;;;9.00;;
23346;SDS011;36852;45.466;11.066;2023-04-06T05:46:18;22.52;;;8.33;;
23346;SDS011;36852;45.466;11.066;2023-04-06T05:48:47;38.53;;;9.08;;
23346;SDS011;36852;45.466;11.066;2023-04-06T05:51:15;27.15;;;8.55;;
23346;SDS011;36852;45.466;11.066;2023-04-06T05:53:44;13.83;;;7.03;;
23346;SDS011;36852;45.466;11.066;2023-04-06T05:56:13;14.68;;;7.67;;
23346;SDS011;36852;45.466;11.066;2023-04-06T05:58:42;22.98;;;8.05;;
23346;SDS011;36852;45.466;11.066;2023-04-06T06:01:11;14.87;;;7.45;;
23346;SDS011;36852;45.466;11.066;2023-04-06T06:03:41;14.05;;;7.75;;
23346;SDS011;36852;45.466;11.066;2023-04-06T06:06:09;26.90;;;8.58;;
23346;SDS011;36852;45.466;11.066;2023-04-06T06:08:44;16.20;;;8.23;;
23346;SDS011;36852;45.466;11.066;2023-04-06T06:11:14;11.20;;;8.13;;
23346;SDS011;36852;45.466;11.066;2023-04-06T06:13:41;15.72;;;7.87;;
23346;SDS011;36852;45.466;11.066;2023-04-06T06:16:09;18.37;;;7.67;;
23346;SDS011;36852;45.466;11.066;2023-04-06T06:18:39;14.90;;;7.42;;
23346;SDS011;36852;45.466;11.066;2023-04-06T06:21:07;13.15;;;6.58;;
23346;SDS011;36852;45.466;11.066;2023-04-06T06:23:35;13.32;;;7.40;;
23346;SDS011;36852;45.466;11.066;2023-04-06T06:26:03;16.27;;;7.97;;
23346;SDS011;36852;45.466;11.066;2023-04-06T06:28:32;15.25;;;7.78;;
23346;SDS011;36852;45.466;11.066;2023-04-06T06:31:00;18.57;;;8.08;;
23346;SDS011;36852;45.466;11.066;2023-04-06T06:33:29;13.10;;;8.20;;
23346;SDS011;36852;45.466;11.066;2023-04-06T06:38:55;18.20;;;9.65;;
23346;SDS011;36852;45.466;11.066;2023-04-06T06:41:25;16.70;;;9.10;;
23346;SDS011;36852;45.466;11.066;2023-04-06T06:43:56;18.67;;;9.10;;
23346;SDS011;36852;45.466;11.066;2023-04-06T06:46:33;13.95;;;8.23;;
23346;SDS011;36852;45.466;11.066;2023-04-06T06:49:01;14.30;;;8.25;;
23346;SDS011;36852;45.466;11.066;2023-04-06T06:51:30;19.87;;;12.18;;
23346;SDS011;36852;45.466;11.066;2023-04-06T06:53:59;71.45;;;37.28;;
23346;SDS011;36852;45.466;11.066;2023-04-06T06:56:27;30.68;;;14.58;;
23346;SDS011;36852;45.466;11.066;2023-04-06T06:58:55;14.38;;;8.68;;
23346;SDS011;36852;45.466;11.066;2023-04-06T07:01:23;21.75;;;14.00;;
23346;SDS011;36852;45.466;11.066;2023-04-06T07:04:00;19.80;;;8.58;;
23346;SDS011;36852;45.466;11.066;2023-04-06T07:06:27;12.70;;;7.53;;
23346;SDS011;36852;45.466;11.066;2023-04-06T07:08:55;13.35;;;8.05;;
23346;SDS011;36852;45.466;11.066;2023-04-06T07:11:23;11.57;;;6.20;;
23346;SDS011;36852;45.466;11.066;2023-04-06T07:13:51;10.70;;;6.85;;
23346;SDS011;36852;45.466;11.066;2023-04-06T07:16:20;15.10;;;6.90;;
23346;SDS011;36852;45.466;11.066;2023-04-06T07:18:47;7.97;;;6.28;;
23346;SDS011;36852;45.466;11.066;2023-04-06T07:21:15;10.23;;;6.58;;
23346;SDS011;36852;45.466;11.066;2023-04-06T07:23:44;12.85;;;6.40;;
23346;SDS011;36852;45.466;11.066;2023-04-06T07:26:12;11.28;;;6.10;;
23346;SDS011;36852;45.466;11.066;2023-04-06T07:28:40;12.30;;;6.62;;
23346;SDS011;36852;45.466;11.066;2023-04-06T07:31:08;8.70;;;6.03;;
23346;SDS011;36852;45.466;11.066;2023-04-06T07:33:38;12.63;;;6.87;;
23346;SDS011;36852;45.466;11.066;2023-04-06T07:36:09;13.60;;;7.65;;
23346;SDS011;36852;45.466;11.066;2023-04-06T07:38:42;13.45;;;7.12;;
23346;SDS011;36852;45.466;11.066;2023-04-06T07:41:14;7.72;;;6.10;;
23346;SDS011;36852;45.466;11.066;2023-04-06T07:43:45;7.80;;;6.42;;
23346;SDS011;36852;45.466;11.066;2023-04-06T07:46:16;10.20;;;6.37;;
23346;SDS011;36852;45.466;11.066;2023-04-06T07:48:46;10.70;;;6.45;;
23346;SDS011;36852;45.466;11.066;2023-04-06T07:51:18;11.48;;;6.85;;
23346;SDS011;36852;45.466;11.066;2023-04-06T07:53:46;13.05;;;6.60;;
23346;SDS011;36852;45.466;11.066;2023-04-06T07:56:14;14.63;;;6.85;;
23346;SDS011;36852;45.466;11.066;2023-04-06T07:58:42;19.25;;;9.60;;
23346;SDS011;36852;45.466;11.066;2023-04-06T08:01:11;17.05;;;8.05;;
23346;SDS011;36852;45.466;11.066;2023-04-06T08:03:39;12.47;;;7.37;;
23346;SDS011;36852;45.466;11.066;2023-04-06T08:06:08;11.05;;;7.17;;
23346;SDS011;36852;45.466;11.066;2023-04-06T08:08:36;9.33;;;6.92;;
23346;SDS011;36852;45.466;11.066;2023-04-06T08:11:04;12.35;;;7.08;;
23346;SDS011;36852;45.466;11.066;2023-04-06T08:13:32;11.80;;;7.03;;
23346;SDS011;36852;45.466;11.066;2023-04-06T08:16:01;11.10;;;6.33;;
23346;SDS011;36852;45.466;11.066;2023-04-06T08:18:29;13.88;;;7.47;;
23346;SDS011;36852;45.466;11.066;2023-04-06T08:20:57;14.20;;;6.97;;
23346;SDS011;36852;45.466;11.066;2023-04-06T08:23:26;12.33;;;6.97;;
23346;SDS011;36852;45.466;11.066;2023-04-06T08:25:54;9.68;;;6.45;;
23346;SDS011;36852;45.466;11.066;2023-04-06T08:28:21;13.62;;;6.90;;
23346;SDS011;36852;45.466;11.066;2023-04-06T08:30:49;13.13;;;7.00;;
23346;SDS011;36852;45.466;11.066;2023-04-06T08:33:17;10.15;;;6.47;;
23346;SDS011;36852;45.466;11.066;2023-04-06T08:35:45;10.95;;;6.12;;
23346;SDS011;36852;45.466;11.066;2023-04-06T08:38:13;9.30;;;6.22;;
23346;SDS011;36852;45.466;11.066;2023-04-06T08:40:40;10.20;;;7.00;;
23346;SDS011;36852;45.466;11.066;2023-04-06T08:43:12;9.85;;;6.05;;
23346;SDS011;36852;45.466;11.066;2023-04-06T08:45:41;11.93;;;6.62;;
23346;SDS011;36852;45.466;11.066;2023-04-06T08:48:10;11.65;;;7.60;;
23346;SDS011;36852;45.466;11.066;2023-04-06T08:50:39;9.85;;;6.35;;
23346;SDS011;36852;45.466;11.066;2023-04-06T08:53:07;9.68;;;6.60;;
23346;SDS011;36852;45.466;11.066;2023-04-06T08:55:35;10.40;;;6.42;;
23346;SDS011;36852;45.466;11.066;2023-04-06T08:58:05;7.67;;;5.65;;
23346;SDS011;36852;45.466;11.066;2023-04-06T09:00:37;12.13;;;6.90;;
23346;SDS011;36852;45.466;11.066;2023-04-06T09:03:05;12.45;;;6.55;;
23346;SDS011;36852;45.466;11.066;2023-04-06T09:05:35;8.93;;;6.42;;
23346;SDS011;36852;45.466;11.066;2023-04-06T09:08:03;14.33;;;7.87;;
23346;SDS011;36852;45.466;11.066;2023-04-06T09:10:31;11.25;;;7.45;;
23346;SDS011;36852;45.466;11.066;2023-04-06T09:13:05;13.53;;;7.65;;
23346;SDS011;36852;45.466;11.066;2023-04-06T09:15:33;15.45;;;7.87;;
23346;SDS011;36852;45.466;11.066;2023-04-06T09:18:01;15.28;;;8.20;;
23346;SDS011;36852;45.466;11.066;2023-04-06T09:20:29;21.52;;;7.92;;
23346;SDS011;36852;45.466;11.066;2023-04-06T09:22:57;13.20;;;7.85;;
23346;SDS011;36852;45.466;11.066;2023-04-06T09:25:25;13.58;;;8.18;;
23346;SDS011;36852;45.466;11.066;2023-04-06T09:27:59;11.15;;;7.22;;
23346;SDS011;36852;45.466;11.066;2023-04-06T09:30:31;13.25;;;7.70;;
23346;SDS011;36852;45.466;11.066;2023-04-06T09:32:59;17.02;;;8.00;;
23346;SDS011;36852;45.466;11.066;2023-04-06T09:35:27;10.50;;;7.08;;
23346;SDS011;36852;45.466;11.066;2023-04-06T09:37:57;13.38;;;7.55;;
23346;SDS011;36852;45.466;11.066;2023-04-06T09:40:25;11.55;;;7.40;;
23346;SDS011;36852;45.466;11.066;2023-04-06T09:42:52;10.60;;;7.50;;
23346;SDS011;36852;45.466;11.066;2023-04-06T09:45:21;16.50;;;8.13;;
23346;SDS011;36852;45.466;11.066;2023-04-06T09:47:53;14.45;;;7.45;;
23346;SDS011;36852;45.466;11.066;2023-04-06T09:50:23;14.20;;;7.60;;
23346;SDS011;36852;45.466;11.066;2023-04-06T09:52:53;12.47;;;7.75;;
23346;SDS011;36852;45.466;11.066;2023-04-06T09:55:33;11.55;;;7.03;;
23346;SDS011;36852;45.466;11.066;2023-04-06T09:58:10;14.23;;;8.35;;
23346;SDS011;36852;45.466;11.066;2023-04-06T10:00:43;16.50;;;7.22;;
23346;SDS011;36852;45.466;11.066;2023-04-06T10:03:17;14.03;;;8.80;;
23346;SDS011;36852;45.466;11.066;2023-04-06T10:05:55;12.45;;;8.78;;
23346;SDS011;36852;45.466;11.066;2023-04-06T10:08:24;10.10;;;7.53;;
23346;SDS011;36852;45.466;11.066;2023-04-06T10:10:56;11.73;;;7.72;;
23346;SDS011;36852;45.466;11.066;2023-04-06T10:13:25;9.25;;;7.78;;
23346;SDS011;36852;45.466;11.066;2023-04-06T10:15:53;10.13;;;7.37;;
23346;SDS011;36852;45.466;11.066;2023-04-06T10:18:22;11.00;;;7.50;;
23346;SDS011;36852;45.466;11.066;2023-04-06T10:26:12;11.75;;;7.15;;
23346;SDS011;36852;45.466;11.066;2023-04-06T10:28:40;11.33;;;6.97;;
23346;SDS011;36852;45.466;11.066;2023-04-06T10:31:13;14.10;;;7.28;;
23346;SDS011;36852;45.466;11.066;2023-04-06T10:33:53;9.35;;;6.62;;
23346;SDS011;36852;45.466;11.066;2023-04-06T10:36:28;10.60;;;7.22;;
23346;SDS011;36852;45.466;11.066;2023-04-06T10:39:04;11.45;;;7.40;;
23346;SDS011;36852;45.466;11.066;2023-04-06T10:41:40;14.20;;;8.08;;
23346;SDS011;36852;45.466;11.066;2023-04-06T10:44:16;14.20;;;7.72;;
23346;SDS011;36852;45.466;11.066;2023-04-06T10:47:00;10.30;;;8.15;;
23346;SDS011;36852;45.466;11.066;2023-04-06T10:49:24;10.98;;;7.75;;
23346;SDS011;36852;45.466;11.066;2023-04-06T10:51:53;13.40;;;8.10;;
23346;SDS011;36852;45.466;11.066;2023-04-06T10:54:23;10.60;;;8.28;;
23346;SDS011;36852;45.466;11.066;2023-04-06T10:56:56;12.35;;;8.18;;
23346;SDS011;36852;45.466;11.066;2023-04-06T10:59:24;11.90;;;8.20;;
23346;SDS011;36852;45.466;11.066;2023-04-06T11:01:53;14.73;;;8.70;;
23346;SDS011;36852;45.466;11.066;2023-04-06T11:04:23;12.25;;;8.90;;
23346;SDS011;36852;45.466;11.066;2023-04-06T11:06:52;12.93;;;8.75;;
23346;SDS011;36852;45.466;11.066;2023-04-06T11:09:27;14.40;;;9.93;;
23346;SDS011;36852;45.466;11.066;2023-04-06T11:11:57;11.95;;;8.80;;
23346;SDS011;36852;45.466;11.066;2023-04-06T11:14:25;14.68;;;9.80;;
23346;SDS011;36852;45.466;11.066;2023-04-06T11:16:53;13.28;;;9.55;;
23346;SDS011;36852;45.466;11.066;2023-04-06T11:19:23;13.78;;;9.58;;
23346;SDS011;36852;45.466;11.066;2023-04-06T11:21:51;13.88;;;9.68;;
23346;SDS011;36852;45.466;11.066;2023-04-06T11:24:21;14.83;;;10.00;;
23346;SDS011;36852;45.466;11.066;2023-04-06T11:26:54;13.20;;;9.85;;
23346;SDS011;36852;45.466;11.066;2023-04-06T11:29:26;13.98;;;9.63;;
23346;SDS011;36852;45.466;11.066;2023-04-06T11:31:59;17.45;;;10.23;;
23346;SDS011;36852;45.466;11.066;2023-04-06T11:34:30;16.90;;;10.13;;
23346;SDS011;36852;45.466;11.066;2023-04-06T11:37:01;17.70;;;10.28;;
23346;SDS011;36852;45.466;11.066;2023-04-06T11:42:26;15.38;;;9.68;;
23346;SDS011;36852;45.466;11.066;2023-04-06T11:44:58;13.98;;;10.18;;
23346;SDS011;36852;45.466;11.066;2023-04-06T11:47:28;18.65;;;9.85;;
23346;SDS011;36852;45.466;11.066;2023-04-06T11:50:07;17.25;;;10.95;;
23346;SDS011;36852;45.466;11.066;2023-04-06T11:52:39;14.55;;;9.70;;
23346;SDS011;36852;45.466;11.066;2023-04-06T11:55:12;16.75;;;10.25;;
23346;SDS011;36852;45.466;11.066;2023-04-06T11:57:44;15.43;;;9.63;;
23346;SDS011;36852;45.466;11.066;2023-04-06T12:00:12;15.98;;;10.98;;
23346;SDS011;36852;45.466;11.066;2023-04-06T12:02:44;12.95;;;9.50;;
23346;SDS011;36852;45.466;11.066;2023-04-06T12:05:15;16.35;;;10.15;;
23346;SDS011;36852;45.466;11.066;2023-04-06T12:07:43;14.18;;;10.53;;
23346;SDS011;36852;45.466;11.066;2023-04-06T12:10:11;14.50;;;9.40;;
23346;SDS011;36852;45.466;11.066;2023-04-06T12:12:41;15.78;;;10.18;;
23346;SDS011;36852;45.466;11.066;2023-04-06T12:15:09;14.40;;;10.60;;
23346;SDS011;36852;45.466;11.066;2023-04-06T12:17:38;18.50;;;10.90;;
23346;SDS011;36852;45.466;11.066;2023-04-06T12:20:06;17.70;;;9.98;;
23346;SDS011;36852;45.466;11.066;2023-04-06T12:22:37;14.33;;;10.23;;
23346;SDS011;36852;45.466;11.066;2023-04-06T12:25:05;14.20;;;10.78;;
23346;SDS011;36852;45.466;11.066;2023-04-06T12:27:34;15.15;;;9.80;;
23346;SDS011;36852;45.466;11.066;2023-04-06T12:30:02;12.82;;;9.93;;
23346;SDS011;36852;45.466;11.066;2023-04-06T12:32:30;13.58;;;10.03;;
23346;SDS011;36852;45.466;11.066;2023-04-06T12:34:57;16.77;;;10.48;;
23346;SDS011;36852;45.466;11.066;2023-04-06T12:37:26;11.63;;;9.60;;
23346;SDS011;36852;45.466;11.066;2023-04-06T12:39:54;24.50;;;10.90;;
23346;SDS011;36852;45.466;11.066;2023-04-06T12:42:23;20.85;;;10.43;;
23346;SDS011;36852;45.466;11.066;2023-04-06T12:44:52;14.45;;;9.78;;
23346;SDS011;36852;45.466;11.066;2023-04-06T12:47:19;12.28;;;9.43;;
23346;SDS011;36852;45.466;11.066;2023-04-06T12:49:48;14.33;;;9.88;;
23346;SDS011;36852;45.466;11.066;2023-04-06T12:52:16;13.93;;;10.38;;
23346;SDS011;36852;45.466;11.066;2023-04-06T12:54:44;16.30;;;10.48;;
23346;SDS011;36852;45.466;11.066;2023-04-06T12:57:18;11.93;;;9.30;;
23346;SDS011;36852;45.466;11.066;2023-04-06T12:59:51;15.90;;;10.18;;
23346;SDS011;36852;45.466;11.066;2023-04-06T13:02:20;16.02;;;10.10;;
23346;SDS011;36852;45.466;11.066;2023-04-06T13:04:52;17.40;;;10.93;;
23346;SDS011;36852;45.466;11.066;2023-04-06T13:07:19;13.60;;;9.85;;
23346;SDS011;36852;45.466;11.066;2023-04-06T13:09:47;14.93;;;10.13;;
23346;SDS011;36852;45.466;11.066;2023-04-06T13:12:16;17.85;;;10.43;;
23346;SDS011;36852;45.466;11.066;2023-04-06T13:14:45;12.70;;;10.38;;
23346;SDS011;36852;45.466;11.066;2023-04-06T13:17:15;15.80;;;10.25;;
23346;SDS011;36852;45.466;11.066;2023-04-06T13:19:44;13.60;;;10.08;;
23346;SDS011;36852;45.466;11.066;2023-04-06T13:22:16;14.98;;;10.65;;
23346;SDS011;36852;45.466;11.066;2023-04-06T13:24:44;15.20;;;10.05;;
23346;SDS011;36852;45.466;11.066;2023-04-06T13:27:12;15.13;;;10.23;;
23346;SDS011;36852;45.466;11.066;2023-04-06T13:29:40;16.87;;;10.15;;
23346;SDS011;36852;45.466;11.066;2023-04-06T13:32:09;15.30;;;11.15;;
23346;SDS011;36852;45.466;11.066;2023-04-06T13:34:38;15.32;;;11.18;;
23346;SDS011;36852;45.466;11.066;2023-04-06T13:37:06;14.18;;;10.60;;
23346;SDS011;36852;45.466;11.066;2023-04-06T13:39:33;17.00;;;11.63;;
23346;SDS011;36852;45.466;11.066;2023-04-06T13:42:01;16.70;;;11.75;;
23346;SDS011;36852;45.466;11.066;2023-04-06T13:44:30;16.32;;;10.95;;
23346;SDS011;36852;45.466;11.066;2023-04-06T13:46:58;12.93;;;10.13;;
23346;SDS011;36852;45.466;11.066;2023-04-06T13:49:27;14.60;;;10.82;;
23346;SDS011;36852;45.466;11.066;2023-04-06T13:51:56;13.62;;;10.43;;
23346;SDS011;36852;45.466;11.066;2023-04-06T13:54:26;22.22;;;11.35;;
23346;SDS011;36852;45.466;11.066;2023-04-06T13:56:54;19.02;;;10.30;;
23346;SDS011;36852;45.466;11.066;2023-04-06T14:02:03;14.40;;;10.82;;
23346;SDS011;36852;45.466;11.066;2023-04-06T14:04:32;14.23;;;11.10;;
23346;SDS011;36852;45.466;11.066;2023-04-06T14:07:01;12.30;;;10.20;;
23346;SDS011;36852;45.466;11.066;2023-04-06T14:09:30;17.37;;;10.98;;
23346;SDS011;36852;45.466;11.066;2023-04-06T14:11:58;12.68;;;10.78;;
23346;SDS011;36852;45.466;11.066;2023-04-06T14:14:26;14.55;;;10.55;;
23346;SDS011;36852;45.466;11.066;2023-04-06T14:16:53;15.30;;;11.35;;
23346;SDS011;36852;45.466;11.066;2023-04-06T14:19:26;14.68;;;10.88;;
23346;SDS011;36852;45.466;11.066;2023-04-06T14:21:54;12.55;;;10.13;;
23346;SDS011;36852;45.466;11.066;2023-04-06T14:24:23;19.40;;;11.08;;
23346;SDS011;36852;45.466;11.066;2023-04-06T14:26:51;12.95;;;9.60;;
23346;SDS011;36852;45.466;11.066;2023-04-06T14:29:22;13.80;;;9.93;;
23346;SDS011;36852;45.466;11.066;2023-04-06T14:31:50;17.82;;;10.82;;
23346;SDS011;36852;45.466;11.066;2023-04-06T14:34:18;12.78;;;10.78;;
23346;SDS011;36852;45.466;11.066;2023-04-06T14:36:46;16.85;;;10.63;;
23346;SDS011;36852;45.466;11.066;2023-04-06T14:39:14;15.25;;;10.30;;
23346;SDS011;36852;45.466;11.066;2023-04-06T14:41:42;16.62;;;10.13;;
23346;SDS011;36852;45.466;11.066;2023-04-06T14:44:10;15.32;;;10.68;;
23346;SDS011;36852;45.466;11.066;2023-04-06T14:46:39;12.60;;;10.48;;
23346;SDS011;36852;45.466;11.066;2023-04-06T14:49:07;16.07;;;11.20;;
23346;SDS011;36852;45.466;11.066;2023-04-06T14:51:36;14.50;;;10.15;;
23346;SDS011;36852;45.466;11.066;2023-04-06T14:54:03;14.23;;;10.32;;
23346;SDS011;36852;45.466;11.066;2023-04-06T14:56:32;13.93;;;9.93;;
23346;SDS011;36852;45.466;11.066;2023-04-06T14:59:00;15.28;;;10.05;;
23346;SDS011;36852;45.466;11.066;2023-04-06T15:01:33;15.00;;;10.15;;
23346;SDS011;36852;45.466;11.066;2023-04-06T15:04:03;11.60;;;9.87;;
23346;SDS011;36852;45.466;11.066;2023-04-06T15:09:05;17.10;;;10.30;;